ENAN/ANX METAR and TAF weather

Enter ICAO airport designator
Station Type Date Time Source
ENAN METAR 2021/03/02 14:20 UTC NOAA

ENAN 021420Z 28022G32KT 9999 VCSH FEW002 SCT021 BKN028 01/M01 Q1013


Station Type Date Time Source
ENAN Decoded METAR 2021/03/02 14:20 UTC NOAA

Andoya, Norway (ENAN) 69-18N 016-09E 14M
Mar 02, 2021 - 09:20 AM EST / 2021.03.02 1420 UTC
Wind: from the W (280 degrees) at 25 MPH (22 KT) gusting to 37 MPH (32 KT):0
Visibility: greater than 7 mile(s):0
Sky conditions: mostly cloudy
Weather: showers in the vicinity
Temperature: 33 F (1 C)
Windchill: 19 F (-7 C):1
Dew Point: 30 F (-1 C)
Relative Humidity: 86%
Pressure (altimeter): 29.91 in. Hg (1013 hPa)
ob: ENAN 021420Z 28022G32KT 9999 VCSH FEW002 SCT021 BKN028 01/M01 Q1013
cycle: 14

Station Type Date Time Source
ENAN TAF 2021/03/02 12:57 UTC NOAA

TAF TAF ENAN 021100Z 0212/0312 28018KT 9999 -SHRASN FEW015TCU BKN030
TEMPO 0212/0218 2000 SHSNRA VV012
TEMPO 0212/0302 29028G38KT
TEMPO 0218/0312 1000 SHSNGS VV007
BECMG 0302/0304 34020G32KT SCT015CB BKN035

Example: see airport list